Time;durP1;ratioP1;P1;durP2;ratioP2;P2;SDS_P1;SDS_P2;PMS_P1;PMS_P2;Temp;Humidity;BMP_temperature;BMP_pressure;BME280_temperature;BME280_humidity;BME280_pressure;Samples;Min_cycle;Max_cycle;Signal;HPM_P1;HPM_P2
2021/04/15 00:00:42;;;;;;;1.80;1.15;;;2.60;99.90;;;;;;5032754;28;20178;-68
2021/04/15 00:03:11;;;;;;;3.25;1.60;;;2.60;99.90;;;;;;5032579;28;20220;-69
2021/04/15 00:05:39;;;;;;;0.90;0.60;;;2.60;99.90;;;;;;5032759;28;20181;-69
2021/04/15 00:08:08;;;;;;;1.90;1.05;;;2.60;99.90;;;;;;5032448;28;20575;-67
2021/04/15 00:10:39;;;;;;;1.98;1.10;;;2.50;99.90;;;;;;5031906;28;20185;-67
2021/04/15 00:13:08;;;;;;;2.13;1.58;;;2.50;99.90;;;;;;5032618;28;20173;-70
2021/04/15 00:15:36;;;;;;;1.10;0.98;;;2.50;99.90;;;;;;5032129;28;20197;-68
2021/04/15 00:18:03;;;;;;;1.45;0.93;;;2.50;99.90;;;;;;5108319;22;20365;-67
2021/04/15 00:20:31;;;;;;;2.10;1.25;;;2.40;99.90;;;;;;5072625;28;20575;-67
2021/04/15 00:22:58;;;;;;;4.18;1.75;;;2.50;99.90;;;;;;5054806;28;20194;-66
2021/04/15 00:25:25;;;;;;;1.92;1.25;;;2.40;99.90;;;;;;5072743;28;20183;-66
2021/04/15 00:27:54;;;;;;;4.00;1.65;;;2.40;99.90;;;;;;5073900;28;20208;-66
2021/04/15 00:30:23;;;;;;;1.20;1.10;;;2.40;99.90;;;;;;5074631;28;20674;-67
2021/04/15 00:32:51;;;;;;;1.88;1.45;;;2.30;99.90;;;;;;5036237;28;20299;-67
2021/04/15 00:35:20;;;;;;;2.38;1.23;;;2.30;99.90;;;;;;5053224;28;20235;-67
2021/04/15 00:37:48;;;;;;;1.77;1.45;;;2.30;99.90;;;;;;5052436;28;20217;-67
2021/04/15 00:40:17;;;;;;;1.10;1.00;;;2.30;99.90;;;;;;5052890;28;20184;-67
2021/04/15 00:42:44;;;;;;;2.20;1.35;;;2.30;99.90;;;;;;5052607;28;20188;-67
2021/04/15 00:45:16;;;;;;;2.35;1.35;;;2.30;99.90;;;;;;5052244;28;20177;-67
2021/04/15 00:47:46;;;;;;;2.75;1.65;;;2.30;99.90;;;;;;5052441;28;20212;-67
2021/04/15 00:50:16;;;;;;;6.47;1.48;;;2.30;99.90;;;;;;5052288;28;20662;-66
2021/04/15 00:52:49;;;;;;;2.67;1.13;;;2.30;99.90;;;;;;5034580;28;20564;-66
2021/04/15 00:55:19;;;;;;;0.90;0.80;;;2.30;99.90;;;;;;5052565;28;20187;-66
2021/04/15 00:57:48;;;;;;;1.20;1.05;;;2.30;99.90;;;;;;5052477;28;20208;-66
2021/04/15 01:00:22;;;;;;;1.73;1.60;;;2.30;99.90;;;;;;5034582;28;20185;-66
2021/04/15 01:02:49;;;;;;;1.98;1.00;;;2.30;99.90;;;;;;5052444;28;20181;-66
2021/04/15 01:05:22;;;;;;;2.85;1.63;;;2.30;99.90;;;;;;5052157;28;20196;-66
2021/04/15 01:07:50;;;;;;;1.75;1.15;;;2.30;99.90;;;;;;5052595;28;20235;-66
2021/04/15 01:10:19;;;;;;;2.17;1.25;;;2.30;99.90;;;;;;5052346;28;20177;-66
2021/04/15 01:13:13;;;;;;;2.33;1.23;;;2.20;99.90;;;;;;5052548;28;20606;-66
2021/04/15 01:15:53;;;;;;;1.48;1.20;;;2.20;99.90;;;;;;5052391;28;20197;-66
2021/04/15 01:18:28;;;;;;;9.80;1.80;;;2.20;99.90;;;;;;5052129;28;20212;-65
2021/04/15 01:21:28;;;;;;;2.92;1.88;;;2.20;99.90;;;;;;5052005;28;20172;-66
2021/04/15 01:24:02;;;;;;;1.60;1.50;;;2.10;99.90;;;;;;5052039;28;20196;-66
2021/04/15 01:26:59;;;;;;;2.42;1.05;;;2.10;99.90;;;;;;5052492;28;20166;-65
2021/04/15 01:29:39;;;;;;;2.78;1.73;;;2.20;99.90;;;;;;5051779;28;20184;-66
2021/04/15 01:32:20;;;;;;;6.28;1.50;;;2.10;99.90;;;;;;5052256;28;20173;-66
2021/04/15 01:34:54;;;;;;;2.42;2.22;;;2.00;99.90;;;;;;5051545;28;20359;-66
2021/04/15 01:37:28;;;;;;;1.80;1.10;;;2.00;99.90;;;;;;5052084;28;20243;-66
2021/04/15 01:40:07;;;;;;;1.85;1.38;;;2.00;99.90;;;;;;5051605;28;20173;-66
2021/04/15 01:42:42;;;;;;;1.25;1.10;;;2.00;99.90;;;;;;5055222;28;20586;-67
2021/04/15 01:45:13;;;;;;;1.50;1.13;;;2.00;99.90;;;;;;5055575;28;20340;-66
2021/04/15 01:47:44;;;;;;;1.40;1.30;;;2.00;99.90;;;;;;5055589;28;20211;-66
2021/04/15 01:50:18;;;;;;;1.23;1.10;;;2.00;99.90;;;;;;5055410;28;20254;-66
2021/04/15 01:52:47;;;;;;;1.30;1.13;;;2.00;99.90;;;;;;5055553;28;20188;-67
2021/04/15 01:55:19;;;;;;;3.10;2.00;;;2.00;99.90;;;;;;5055684;28;20188;-67
2021/04/15 01:57:56;;;;;;;1.90;1.50;;;2.00;99.90;;;;;;5055430;28;20223;-67
2021/04/15 02:00:26;;;;;;;1.65;1.00;;;2.00;99.90;;;;;;5055315;28;20213;-67
2021/04/15 02:02:58;;;;;;;1.10;0.90;;;2.00;99.90;;;;;;5055297;28;20530;-67
2021/04/15 02:05:29;;;;;;;6.65;1.70;;;2.00;99.90;;;;;;5055200;28;20189;-67
2021/04/15 02:08:01;;;;;;;2.55;1.38;;;2.00;99.90;;;;;;5054817;28;20213;-65
2021/04/15 02:10:28;;;;;;;2.63;1.65;;;2.00;99.90;;;;;;5055013;28;20173;-67
2021/04/15 02:12:57;;;;;;;2.10;1.90;;;2.00;99.90;;;;;;5054605;28;20199;-67
2021/04/15 02:15:29;;;;;;;1.70;1.52;;;2.00;99.90;;;;;;5036869;28;20189;-67
2021/04/15 02:18:01;;;;;;;7.03;1.73;;;2.00;99.90;;;;;;5054708;28;20216;-67
2021/04/15 02:20:29;;;;;;;1.88;1.30;;;2.00;99.90;;;;;;5054870;28;20353;-67
2021/04/15 02:23:03;;;;;;;1.48;1.10;;;2.10;99.90;;;;;;5054745;28;20629;-67
2021/04/15 02:25:36;;;;;;;3.45;1.30;;;2.00;99.90;;;;;;5054765;28;20176;-67
2021/04/15 02:28:10;;;;;;;1.60;1.17;;;2.00;99.90;;;;;;5054376;28;20213;-67
2021/04/15 02:30:42;;;;;;;2.95;1.85;;;2.00;99.90;;;;;;5054719;28;20208;-67
2021/04/15 02:33:18;;;;;;;1.40;1.10;;;2.00;99.90;;;;;;5054713;28;20231;-67
2021/04/15 02:35:48;;;;;;;1.27;1.17;;;2.00;99.90;;;;;;5054870;28;20228;-67
2021/04/15 02:38:18;;;;;;;2.25;1.92;;;2.00;99.90;;;;;;5054807;28;20283;-67
2021/04/15 02:40:49;;;;;;;3.30;2.08;;;2.00;99.90;;;;;;5054738;28;20165;-66
2021/04/15 02:43:22;;;;;;;3.22;2.20;;;1.90;99.90;;;;;;5054831;28;20631;-66
2021/04/15 02:45:54;;;;;;;4.45;1.40;;;1.90;99.90;;;;;;5054739;28;20173;-66
2021/04/15 02:48:26;;;;;;;1.80;1.42;;;1.90;99.90;;;;;;5054578;28;20209;-66
2021/04/15 02:51:00;;;;;;;2.85;1.85;;;1.90;99.90;;;;;;5054642;28;20254;-66
2021/04/15 02:53:34;;;;;;;4.55;1.20;;;1.90;99.90;;;;;;5053816;28;20223;-66
2021/04/15 02:56:08;;;;;;;4.53;2.60;;;1.80;99.90;;;;;;5054209;28;20306;-66
2021/04/15 02:58:40;;;;;;;2.65;1.23;;;1.80;99.90;;;;;;5054164;28;20619;-66
2021/04/15 03:01:14;;;;;;;3.58;1.77;;;1.80;99.90;;;;;;5055080;28;20173;-66
2021/04/15 03:03:44;;;;;;;2.58;2.22;;;1.80;99.90;;;;;;5073992;28;20251;-67
2021/04/15 03:06:16;;;;;;;2.00;1.50;;;1.80;99.90;;;;;;5073953;28;20180;-67
2021/04/15 03:08:46;;;;;;;4.75;2.60;;;1.70;99.90;;;;;;5073794;28;20222;-66
2021/04/15 03:11:18;;;;;;;4.53;2.40;;;1.70;99.90;;;;;;5074205;28;20790;-66
2021/04/15 03:13:49;;;;;;;2.90;1.80;;;1.70;99.90;;;;;;5073845;28;20176;-67
2021/04/15 03:16:19;;;;;;;3.95;1.98;;;1.70;99.90;;;;;;5073820;28;20239;-66
2021/04/15 03:18:49;;;;;;;3.75;2.03;;;1.70;99.90;;;;;;5073476;28;20220;-66
2021/04/15 03:21:20;;;;;;;7.93;2.65;;;1.60;99.90;;;;;;5055752;28;20187;-66
2021/04/15 03:23:53;;;;;;;4.22;2.10;;;1.60;99.90;;;;;;5073698;28;20177;-67
2021/04/15 03:26:37;;;;;;;5.95;2.00;;;1.60;99.90;;;;;;5073683;28;20206;-67
2021/04/15 03:29:14;;;;;;;6.88;2.60;;;1.60;99.90;;;;;;5074410;28;20183;-66
2021/04/15 03:31:48;;;;;;;6.25;3.00;;;1.60;99.90;;;;;;5073664;28;20198;-66
2021/04/15 03:34:22;;;;;;;3.63;3.28;;;1.60;99.90;;;;;;5073266;28;20233;-66
2021/04/15 03:36:54;;;;;;;2.90;2.70;;;1.60;99.90;;;;;;5073234;28;20200;-66
2021/04/15 03:39:26;;;;;;;3.40;2.58;;;1.60;99.90;;;;;;5055214;28;20188;-66
2021/04/15 03:41:57;;;;;;;6.82;3.60;;;1.50;99.90;;;;;;5072102;28;20606;-67
2021/04/15 03:44:31;;;;;;;5.78;3.22;;;1.50;99.90;;;;;;5072230;28;20168;-67
2021/04/15 03:47:04;;;;;;;5.43;3.35;;;1.50;99.90;;;;;;5072480;28;20207;-66
2021/04/15 03:49:37;;;;;;;2.95;1.75;;;1.50;99.90;;;;;;5070535;28;20579;-65
2021/04/15 03:52:07;;;;;;;4.50;1.90;;;1.50;99.90;;;;;;5071897;28;20288;-66
2021/04/15 03:54:38;;;;;;;5.65;2.75;;;1.60;99.90;;;;;;5071974;28;20218;-65
2021/04/15 03:57:11;;;;;;;4.63;3.40;;;1.50;99.90;;;;;;5072157;28;20220;-68
2021/04/15 03:59:47;;;;;;;3.97;2.00;;;1.50;99.90;;;;;;5055046;28;20207;-67
2021/04/15 04:02:19;;;;;;;5.50;2.60;;;1.50;99.90;;;;;;5073003;28;20168;-67
2021/04/15 04:04:51;;;;;;;2.60;1.98;;;1.50;99.90;;;;;;5072297;28;20624;-66
2021/04/15 04:07:24;;;;;;;3.35;2.00;;;1.50;99.90;;;;;;5073088;28;20255;-66
2021/04/15 04:09:57;;;;;;;3.20;2.40;;;1.50;99.90;;;;;;5072786;28;20176;-66
2021/04/15 04:12:31;;;;;;;5.78;2.15;;;1.50;99.90;;;;;;5071563;28;20192;-67
2021/04/15 04:15:06;;;;;;;4.85;2.10;;;1.50;99.90;;;;;;5073113;28;20587;-66
2021/04/15 04:17:41;;;;;;;8.20;2.95;;;1.50;99.90;;;;;;5072763;28;20235;-66
2021/04/15 04:20:10;;;;;;;3.92;2.42;;;1.50;99.90;;;;;;5073064;28;20255;-66
2021/04/15 04:22:47;;;;;;;2.53;2.33;;;1.50;99.90;;;;;;5054985;28;20594;-67
2021/04/15 04:25:24;;;;;;;6.88;3.03;;;1.50;99.90;;;;;;5072629;28;20180;-68
2021/04/15 04:27:57;;;;;;;5.32;4.05;;;1.50;99.90;;;;;;5072677;28;20269;-67
2021/04/15 04:30:28;;;;;;;3.70;1.45;;;1.60;99.90;;;;;;5072643;28;20180;-67
2021/04/15 04:33:00;;;;;;;6.70;3.42;;;1.60;99.90;;;;;;5072464;28;20180;-67
2021/04/15 04:35:31;;;;;;;3.83;2.97;;;1.70;99.90;;;;;;5073114;28;20176;-67
2021/04/15 04:38:04;;;;;;;3.25;2.38;;;1.80;99.90;;;;;;5073198;28;20223;-67
2021/04/15 04:40:35;;;;;;;3.22;2.65;;;1.80;99.90;;;;;;5072839;28;20222;-66
2021/04/15 04:43:09;;;;;;;6.13;2.95;;;1.90;99.90;;;;;;5072413;28;20573;-66
2021/04/15 04:45:37;;;;;;;6.20;3.15;;;2.00;99.90;;;;;;5072361;28;20180;-65
2021/04/15 04:48:11;;;;;;;6.63;3.20;;;2.00;99.90;;;;;;5072619;28;20584;-66
2021/04/15 04:50:43;;;;;;;3.38;2.13;;;2.10;99.90;;;;;;5071239;28;20254;-65
2021/04/15 04:53:14;;;;;;;9.10;3.67;;;2.10;99.90;;;;;;5070959;28;20259;-65
2021/04/15 04:55:44;;;;;;;4.80;3.03;;;2.20;99.90;;;;;;5070852;28;20180;-65
2021/04/15 04:58:13;;;;;;;8.98;2.55;;;2.20;99.90;;;;;;5071147;28;20229;-66
2021/04/15 05:00:45;;;;;;;7.57;2.50;;;2.20;99.90;;;;;;5070955;28;20179;-66
2021/04/15 05:03:19;;;;;;;4.15;2.95;;;2.20;99.90;;;;;;5071414;28;20172;-66
2021/04/15 05:05:47;;;;;;;3.00;2.55;;;2.20;99.90;;;;;;5070804;28;20176;-66
2021/04/15 05:08:21;;;;;;;4.93;2.50;;;2.30;99.90;;;;;;5069452;28;20208;-66
2021/04/15 05:10:51;;;;;;;3.72;2.60;;;2.30;99.90;;;;;;5070956;28;20546;-66
2021/04/15 05:13:22;;;;;;;4.85;3.95;;;2.40;99.90;;;;;;5071225;28;20521;-66
2021/04/15 05:15:49;;;;;;;2.95;2.60;;;2.50;99.90;;;;;;5073529;28;20632;-65
2021/04/15 05:18:20;;;;;;;2.30;2.10;;;2.40;99.90;;;;;;5074971;28;20219;-65
2021/04/15 05:20:49;;;;;;;4.88;2.97;;;2.50;99.90;;;;;;5075624;28;20176;-65
2021/04/15 05:23:23;;;;;;;3.22;2.00;;;2.50;99.90;;;;;;5074967;28;20418;-65
2021/04/15 05:26:07;;;;;;;4.05;3.20;;;2.60;99.90;;;;;;5074686;28;20179;-68
2021/04/15 05:28:36;;;;;;;1.65;1.50;;;2.60;99.90;;;;;;5074777;28;20703;-65
2021/04/15 05:31:05;;;;;;;2.50;1.90;;;2.70;99.90;;;;;;5074617;28;20540;-66
2021/04/15 05:33:36;;;;;;;3.25;1.63;;;2.70;99.90;;;;;;5074827;28;20226;-66
2021/04/15 05:36:08;;;;;;;8.48;1.85;;;2.70;99.90;;;;;;5074466;28;20226;-66
2021/04/15 05:38:41;;;;;;;4.38;2.65;;;2.80;99.90;;;;;;5074279;28;20299;-65
2021/04/15 05:41:12;;;;;;;5.32;2.95;;;2.90;99.90;;;;;;5056465;28;20658;-67
2021/04/15 05:43:45;;;;;;;2.88;1.40;;;3.00;99.90;;;;;;5073960;28;20287;-65
2021/04/15 05:46:16;;;;;;;2.90;1.67;;;3.10;99.90;;;;;;5075298;28;20716;-67
2021/04/15 05:48:46;;;;;;;4.40;2.33;;;3.10;99.90;;;;;;5074889;28;20219;-65
2021/04/15 05:51:18;;;;;;;1.60;1.50;;;3.20;99.90;;;;;;5074703;28;20184;-65
2021/04/15 05:53:50;;;;;;;5.28;2.20;;;3.40;99.90;;;;;;5074030;28;20180;-65
2021/04/15 05:56:20;;;;;;;3.67;3.40;;;3.40;99.90;;;;;;5074045;28;20223;-65
2021/04/15 05:59:05;;;;;;;2.40;2.00;;;3.40;99.90;;;;;;5074126;28;20281;-66
2021/04/15 06:01:39;;;;;;;3.88;2.20;;;3.40;99.90;;;;;;5074261;28;20641;-66
2021/04/15 06:04:19;;;;;;;5.63;2.78;;;3.20;99.90;;;;;;5056211;28;20323;-66
2021/04/15 06:06:47;;;;;;;2.75;2.20;;;3.10;99.90;;;;;;5073850;28;20263;-65
2021/04/15 06:09:15;;;;;;;6.70;5.05;;;3.20;99.90;;;;;;5073906;28;20691;-65
2021/04/15 06:11:58;;;;;;;2.28;1.95;;;3.10;99.90;;;;;;5074426;28;20541;-66
2021/04/15 06:14:30;;;;;;;14.43;6.35;;;3.30;99.90;;;;;;5074083;28;20211;-66
2021/04/15 06:17:22;;;;;;;6.63;4.22;;;3.50;99.90;;;;;;5073809;28;20562;-66
2021/04/15 06:19:56;;;;;;;9.65;4.30;;;3.60;99.90;;;;;;5008529;28;20282;-68
2021/04/15 06:22:26;;;;;;;2.20;1.92;;;3.60;99.90;;;;;;5035798;28;20185;-70
2021/04/15 06:25:00;;;;;;;3.90;2.08;;;3.60;99.90;;;;;;5036177;28;20199;-68
2021/04/15 06:27:27;;;;;;;5.78;3.63;;;3.70;99.90;;;;;;5035318;28;20230;-69
2021/04/15 06:30:00;;;;;;;4.40;4.00;;;3.80;99.90;;;;;;5036316;28;20209;-70
2021/04/15 06:32:34;;;;;;;4.40;2.45;;;3.80;99.90;;;;;;5036860;28;20566;-67
2021/04/15 06:35:04;;;;;;;5.45;4.57;;;4.10;99.90;;;;;;5035117;28;20188;-70
2021/04/15 06:37:40;;;;;;;7.15;3.90;;;4.00;99.90;;;;;;5017008;28;20298;-69
2021/04/15 06:40:52;;;;;;;4.07;2.13;;;4.00;99.90;;;;;;5016998;28;20582;-70
2021/04/15 06:44:13;;;;;;;4.45;1.80;;;4.00;99.90;;;;;;5017282;28;20182;-69
2021/04/15 06:47:21;;;;;;;2.50;2.17;;;3.90;99.90;;;;;;5016116;28;20232;-69
2021/04/15 06:50:10;;;;;;;9.65;2.83;;;4.00;99.90;;;;;;4968016;28;20195;-69
2021/04/15 06:52:46;;;;;;;4.18;2.90;;;4.10;99.90;;;;;;5027384;28;20560;-70
2021/04/15 06:55:23;;;;;;;3.55;2.65;;;4.00;99.90;;;;;;5028039;28;20693;-68
2021/04/15 06:58:29;;;;;;;4.53;3.15;;;4.30;99.90;;;;;;5020676;28;20227;-68
2021/04/15 07:01:17;;;;;;;4.45;2.60;;;4.40;99.90;;;;;;5013127;28;20201;-70
2021/04/15 07:04:03;;;;;;;2.17;1.75;;;4.70;99.90;;;;;;5029092;28;20670;-69
2021/04/15 07:06:43;;;;;;;5.00;2.88;;;4.70;99.90;;;;;;4999922;28;20197;-68
2021/04/15 07:09:34;;;;;;;6.18;3.42;;;4.60;99.90;;;;;;5018492;28;20198;-69
2021/04/15 07:12:16;;;;;;;2.78;2.17;;;4.70;99.90;;;;;;5018186;28;20244;-68
2021/04/15 07:14:59;;;;;;;3.00;2.30;;;4.90;99.90;;;;;;5018718;28;20178;-69
2021/04/15 07:17:51;;;;;;;3.20;2.13;;;4.80;99.90;;;;;;5022390;28;20205;-69
2021/04/15 07:20:43;;;;;;;2.50;1.50;;;4.60;99.90;;;;;;5021281;28;20204;-70
2021/04/15 07:23:31;;;;;;;2.85;2.65;;;4.60;99.90;;;;;;5022173;28;20192;-70
2021/04/15 07:26:14;;;;;;;2.78;1.55;;;4.80;99.90;;;;;;5020800;28;20204;-70
2021/04/15 07:29:09;;;;;;;2.85;2.10;;;5.20;99.90;;;;;;5019988;28;20239;-70
2021/04/15 07:31:59;;;;;;;2.65;2.03;;;5.20;99.90;;;;;;5030746;28;20212;-70
2021/04/15 07:34:45;;;;;;;1.83;1.60;;;5.30;99.90;;;;;;5035012;28;20165;-69
2021/04/15 07:37:48;;;;;;;2.17;1.73;;;5.50;99.90;;;;;;5034439;28;20593;-70
2021/04/15 07:40:34;;;;;;;2.13;1.30;;;5.80;99.90;;;;;;5034223;28;20232;-67
2021/04/15 07:43:12;;;;;;;2.47;1.50;;;5.90;99.90;;;;;;5034301;28;20199;-68
2021/04/15 07:45:43;;;;;;;3.58;1.20;;;6.20;99.90;;;;;;5033842;28;20184;-67
2021/04/15 07:48:45;;;;;;;2.50;2.30;;;6.40;99.90;;;;;;5033215;28;20708;-68
2021/04/15 07:51:39;;;;;;;6.47;2.40;;;6.40;99.90;;;;;;5019741;28;20565;-68
2021/04/15 07:54:45;;;;;;;3.80;1.35;;;6.40;99.90;;;;;;5006369;28;20198;-68
2021/04/15 07:57:42;;;;;;;4.05;2.47;;;6.30;99.90;;;;;;4946313;29;20708;-68
2021/04/15 08:00:30;;;;;;;5.50;1.70;;;6.30;99.90;;;;;;4932863;29;20212;-70
2021/04/15 08:03:23;;;;;;;2.33;1.50;;;6.30;99.90;;;;;;5011935;28;20302;-68
2021/04/15 08:06:05;;;;;;;2.25;1.17;;;6.50;99.90;;;;;;4980819;28;20458;-69
2021/04/15 08:09:26;;;;;;;4.07;3.15;;;6.50;99.90;;;;;;5033594;28;20236;-70
2021/04/15 08:12:08;;;;;;;5.88;2.20;;;6.10;99.90;;;;;;5033137;28;20178;-70
2021/04/15 08:15:01;;;;;;;2.30;2.10;;;6.30;99.90;;;;;;5033667;28;20540;-70
2021/04/15 08:17:38;;;;;;;6.20;4.07;;;6.40;99.90;;;;;;5032901;28;20217;-70
2021/04/15 08:20:30;;;;;;;2.08;1.88;;;6.40;99.90;;;;;;5033224;28;20177;-70
2021/04/15 08:23:26;;;;;;;2.58;2.20;;;6.40;99.90;;;;;;5034433;28;20186;-68
2021/04/15 08:26:11;;;;;;;1.75;1.65;;;6.50;99.90;;;;;;5000873;28;20220;-68
2021/04/15 08:28:55;;;;;;;2.35;2.03;;;6.50;99.90;;;;;;5015228;28;20217;-68
2021/04/15 08:31:31;;;;;;;2.60;2.40;;;6.40;99.90;;;;;;5032634;28;20190;-70
2021/04/15 08:34:11;;;;;;;4.40;2.65;;;6.40;99.90;;;;;;5033065;28;20201;-69
2021/04/15 08:37:17;;;;;;;1.55;1.35;;;6.50;99.90;;;;;;5032588;28;20201;-70
2021/04/15 08:39:56;;;;;;;4.63;2.00;;;6.70;99.90;;;;;;5032468;28;20189;-70
2021/04/15 08:42:35;;;;;;;2.67;2.20;;;7.10;99.90;;;;;;5015216;28;20201;-70
2021/04/15 08:45:30;;;;;;;1.95;1.25;;;7.30;99.90;;;;;;5032433;28;20169;-71
2021/04/15 08:48:23;;;;;;;1.20;0.90;;;7.20;99.90;;;;;;5014929;28;20304;-71
2021/04/15 08:50:59;;;;;;;1.08;0.65;;;7.50;99.90;;;;;;5032563;28;20174;-69
2021/04/15 08:54:00;;;;;;;1.13;1.02;;;7.60;99.90;;;;;;5014922;28;20713;-70
2021/04/15 08:56:31;;;;;;;1.45;1.02;;;7.70;99.90;;;;;;5032075;28;20197;-70
2021/04/15 08:59:21;;;;;;;1.58;1.15;;;7.50;99.90;;;;;;5032391;28;20173;-69
2021/04/15 09:01:56;;;;;;;3.92;0.90;;;7.50;99.90;;;;;;5032734;28;20250;-72
2021/04/15 09:04:44;;;;;;;1.00;0.70;;;7.60;99.90;;;;;;5015685;28;20251;-69
2021/04/15 09:07:13;;;;;;;3.05;0.80;;;7.60;99.90;;;;;;5033240;28;20641;-71
2021/04/15 09:09:54;;;;;;;1.00;0.70;;;7.60;99.90;;;;;;5034652;28;20200;-69
2021/04/15 09:13:04;;;;;;;3.15;1.35;;;7.60;99.90;;;;;;5033901;28;20602;-68
2021/04/15 09:15:37;;;;;;;1.10;0.60;;;7.80;99.90;;;;;;4957661;28;20220;-70
2021/04/15 09:18:12;;;;;;;0.90;0.70;;;7.90;99.90;;;;;;5030180;28;20223;-71
2021/04/15 09:20:44;;;;;;;1.10;0.70;;;8.00;99.90;;;;;;5051775;28;20184;-69
2021/04/15 09:23:40;;;;;;;1.00;0.60;;;8.10;99.90;;;;;;5034990;28;20236;-70
2021/04/15 09:26:18;;;;;;;0.90;0.60;;;7.80;99.90;;;;;;5052456;28;20268;-69
2021/04/15 09:29:02;;;;;;;2.17;1.00;;;7.70;99.90;;;;;;5052059;28;20258;-69
2021/04/15 09:31:49;;;;;;;1.48;0.90;;;8.00;99.90;;;;;;5053125;28;20173;-70
2021/04/15 09:34:49;;;;;;;1.33;1.02;;;8.30;99.90;;;;;;5042122;28;20517;-71
2021/04/15 09:37:42;;;;;;;1.33;1.23;;;8.10;99.90;;;;;;5059958;28;20216;-70
2021/04/15 09:40:16;;;;;;;1.80;0.90;;;7.90;99.90;;;;;;5059377;28;20473;-69
2021/04/15 09:43:01;;;;;;;0.90;0.60;;;8.10;99.90;;;;;;5060679;28;20240;-69
2021/04/15 09:45:47;;;;;;;1.30;0.80;;;8.20;99.90;;;;;;5064186;28;20184;-68
2021/04/15 09:48:46;;;;;;;1.15;0.70;;;8.40;99.90;;;;;;5063862;28;20215;-69
2021/04/15 09:51:30;;;;;;;1.10;0.60;;;8.40;99.90;;;;;;5063137;28;20178;-69
2021/04/15 09:54:08;;;;;;;1.40;0.82;;;8.40;99.90;;;;;;5044551;28;20650;-69
2021/04/15 09:56:54;;;;;;;1.20;0.80;;;8.40;99.90;;;;;;5038175;28;20611;-68
2021/04/15 09:59:32;;;;;;;1.70;0.95;;;8.20;99.90;;;;;;5035569;28;20195;-69
2021/04/15 10:02:03;;;;;;;1.13;0.93;;;8.20;99.90;;;;;;5053583;28;20213;-70
2021/04/15 10:04:39;;;;;;;0.80;0.50;;;8.30;99.90;;;;;;5055354;28;20266;-70
2021/04/15 10:07:09;;;;;;;0.80;0.50;;;8.20;99.90;;;;;;5055740;28;20208;-69
2021/04/15 10:09:59;;;;;;;5.38;3.22;;;7.90;99.90;;;;;;5054276;28;20594;-68
2021/04/15 10:12:42;;;;;;;1.20;1.00;;;8.10;99.90;;;;;;5053984;28;20197;-69
2021/04/15 10:15:26;;;;;;;2.50;2.30;;;8.00;99.90;;;;;;5054581;28;20169;-67
2021/04/15 10:18:13;;;;;;;1.30;1.20;;;7.90;99.90;;;;;;5053812;28;20571;-68
2021/04/15 10:21:02;;;;;;;2.97;2.78;;;7.90;99.90;;;;;;5036085;28;20661;-68
2021/04/15 10:24:05;;;;;;;1.60;1.00;;;8.00;99.90;;;;;;5054101;28;20661;-68
2021/04/15 10:27:03;;;;;;;1.25;0.82;;;8.10;99.90;;;;;;5053668;28;20581;-68
2021/04/15 10:29:56;;;;;;;1.65;1.00;;;7.60;99.90;;;;;;5053864;28;20180;-68
2021/04/15 10:32:38;;;;;;;2.85;1.33;;;7.80;99.90;;;;;;5054138;28;20574;-68
2021/04/15 10:35:28;;;;;;;5.10;3.25;;;8.00;99.90;;;;;;5053956;28;20251;-68
2021/04/15 10:38:27;;;;;;;1.00;0.77;;;8.10;99.90;;;;;;5053212;28;20204;-69
2021/04/15 10:41:04;;;;;;;1.20;0.73;;;7.90;99.90;;;;;;5053289;28;20907;-69
2021/04/15 10:43:53;;;;;;;1.10;0.60;;;7.80;99.90;;;;;;5034170;28;20189;-69
2021/04/15 10:46:47;;;;;;;6.90;0.98;;;7.40;99.90;;;;;;5033729;28;20568;-66
2021/04/15 10:49:47;;;;;;;0.80;0.60;;;7.40;99.90;;;;;;5016150;28;20248;-67
2021/04/15 10:52:33;;;;;;;1.25;0.70;;;7.40;99.90;;;;;;5033626;28;20192;-69
2021/04/15 10:55:14;;;;;;;0.80;0.60;;;7.40;99.90;;;;;;5033751;28;20188;-68
2021/04/15 10:57:42;;;;;;;1.13;0.98;;;7.30;99.90;;;;;;5033907;28;20549;-68
2021/04/15 11:00:35;;;;;;;1.23;0.90;;;7.60;99.90;;;;;;5033525;28;20207;-68
2021/04/15 11:03:13;;;;;;;1.20;0.60;;;7.70;99.90;;;;;;5001599;28;20201;-71
2021/04/15 11:05:43;;;;;;;1.17;0.88;;;7.80;99.90;;;;;;5016108;28;20272;-68
2021/04/15 11:08:19;;;;;;;1.73;0.77;;;8.10;99.90;;;;;;5034330;28;20587;-69
2021/04/15 11:10:46;;;;;;;0.90;0.65;;;8.40;99.90;;;;;;5033051;28;20189;-70
2021/04/15 11:13:24;;;;;;;1.20;0.85;;;8.20;99.90;;;;;;5014888;28;20194;-68
2021/04/15 11:15:54;;;;;;;1.35;0.70;;;8.20;99.90;;;;;;5033191;28;20188;-69
2021/04/15 11:18:26;;;;;;;1.00;0.80;;;8.20;99.90;;;;;;5032109;28;20232;-68
2021/04/15 11:21:11;;;;;;;1.20;0.80;;;7.80;99.90;;;;;;5014910;28;20550;-68
2021/04/15 11:23:38;;;;;;;0.90;0.65;;;7.90;99.90;;;;;;5032372;28;20260;-69
2021/04/15 11:26:29;;;;;;;1.65;0.60;;;7.80;99.90;;;;;;5014881;28;20193;-69
2021/04/15 11:28:59;;;;;;;1.55;1.27;;;7.90;99.90;;;;;;5027393;28;20271;-69
2021/04/15 11:31:37;;;;;;;1.75;0.80;;;8.20;99.90;;;;;;5031858;28;20540;-69
2021/04/15 11:34:12;;;;;;;1.40;0.70;;;8.40;99.90;;;;;;5032269;28;20666;-67
2021/04/15 11:36:45;;;;;;;0.95;0.65;;;8.50;99.90;;;;;;5032339;28;20592;-68
2021/04/15 11:39:21;;;;;;;1.00;0.68;;;8.00;99.90;;;;;;5031812;28;20192;-68
2021/04/15 11:41:55;;;;;;;1.80;0.85;;;8.10;99.90;;;;;;5031949;28;20181;-68
2021/04/15 11:44:34;;;;;;;0.80;0.60;;;7.80;99.90;;;;;;5014414;28;20201;-69
2021/04/15 11:47:06;;;;;;;0.90;0.60;;;7.50;99.90;;;;;;5032036;28;20614;-68
2021/04/15 11:49:37;;;;;;;1.33;0.80;;;7.40;99.90;;;;;;5032189;28;20386;-68
2021/04/15 11:52:21;;;;;;;1.10;0.70;;;7.40;99.90;;;;;;5032093;28;20174;-69
2021/04/15 11:55:06;;;;;;;3.42;0.90;;;7.60;99.90;;;;;;5014861;28;20185;-68
2021/04/15 11:57:36;;;;;;;1.13;0.85;;;7.40;99.90;;;;;;5032674;28;20704;-68
2021/04/15 12:00:18;;;;;;;1.42;0.73;;;7.40;99.90;;;;;;5031954;28;20177;-67
2021/04/15 12:02:49;;;;;;;1.67;1.00;;;7.50;99.90;;;;;;5032342;28;20174;-68
2021/04/15 12:05:27;;;;;;;1.13;0.60;;;7.60;99.90;;;;;;5032094;28;20177;-69
2021/04/15 12:07:59;;;;;;;0.85;0.63;;;7.90;99.90;;;;;;5031968;28;20205;-68
2021/04/15 12:10:29;;;;;;;2.22;1.17;;;8.10;99.90;;;;;;5032667;28;20909;-67
2021/04/15 12:13:01;;;;;;;1.75;0.88;;;7.80;99.90;;;;;;5032232;28;20535;-68
2021/04/15 12:15:33;;;;;;;2.35;1.00;;;7.90;99.90;;;;;;5032206;28;20212;-69
2021/04/15 12:18:08;;;;;;;1.30;0.60;;;8.20;99.90;;;;;;5049861;22;20225;-67
2021/04/15 12:20:42;;;;;;;2.38;0.70;;;8.20;99.90;;;;;;5051587;28;20188;-68
2021/04/15 12:23:18;;;;;;;5.70;0.70;;;8.50;99.90;;;;;;5051546;28;20176;-66
2021/04/15 12:26:11;;;;;;;2.45;0.95;;;8.60;99.90;;;;;;5050874;28;20272;-66
2021/04/15 12:28:43;;;;;;;3.95;0.80;;;8.30;99.90;;;;;;5051780;28;20207;-67
2021/04/15 12:31:20;;;;;;;1.10;0.70;;;8.30;99.90;;;;;;5033591;28;20271;-67
2021/04/15 12:34:06;;;;;;;0.90;0.70;;;8.30;99.90;;;;;;5051371;28;20181;-66
2021/04/15 12:36:38;;;;;;;1.08;0.80;;;8.10;99.90;;;;;;5051373;28;20177;-67
2021/04/15 12:39:09;;;;;;;1.05;0.77;;;8.20;99.90;;;;;;5032741;28;20227;-66
2021/04/15 12:41:38;;;;;;;1.00;0.70;;;8.20;99.90;;;;;;5051070;28;20195;-69
2021/04/15 12:44:10;;;;;;;1.10;0.90;;;8.30;99.90;;;;;;5051349;28;20760;-67
2021/04/15 12:46:39;;;;;;;2.75;0.77;;;8.30;99.90;;;;;;5051533;28;20192;-67
2021/04/15 12:49:10;;;;;;;2.80;1.45;;;8.40;99.90;;;;;;5051410;28;20181;-67
2021/04/15 12:51:40;;;;;;;1.20;0.80;;;8.50;99.90;;;;;;5051457;28;20177;-66
2021/04/15 12:54:11;;;;;;;1.90;0.88;;;8.30;99.90;;;;;;5051601;28;20661;-68
2021/04/15 12:56:41;;;;;;;1.65;0.60;;;8.30;99.90;;;;;;5051021;28;20176;-68
2021/04/15 12:59:14;;;;;;;2.13;1.00;;;8.40;99.90;;;;;;5049189;28;20646;-67
2021/04/15 13:01:42;;;;;;;1.33;0.70;;;8.50;99.90;;;;;;5050497;28;20199;-67
2021/04/15 13:04:17;;;;;;;0.90;0.60;;;8.50;99.90;;;;;;5051137;28;20576;-68
2021/04/15 13:07:08;;;;;;;1.17;1.02;;;8.50;99.90;;;;;;5051076;28;20291;-65
2021/04/15 13:09:38;;;;;;;1.25;0.68;;;8.50;99.90;;;;;;5034976;28;20201;-67
2021/04/15 13:12:30;;;;;;;1.10;0.75;;;8.40;99.90;;;;;;5051294;28;20255;-66
2021/04/15 13:14:59;;;;;;;1.00;0.65;;;8.40;99.90;;;;;;5033931;28;20555;-67
2021/04/15 13:17:47;;;;;;;3.83;1.05;;;8.40;99.90;;;;;;5051764;28;20699;-66
2021/04/15 13:20:43;;;;;;;4.40;1.30;;;8.60;99.90;;;;;;5052285;28;20251;-66
2021/04/15 13:23:40;;;;;;;1.77;0.85;;;8.50;99.90;;;;;;5051757;28;20188;-66
2021/04/15 13:26:30;;;;;;;1.95;0.70;;;8.20;99.90;;;;;;5039260;28;20258;-65
2021/04/15 13:29:19;;;;;;;1.15;0.70;;;8.30;99.90;;;;;;5051901;28;20227;-65
2021/04/15 13:31:59;;;;;;;1.00;0.60;;;8.20;99.90;;;;;;5051790;28;20271;-64
2021/04/15 13:34:46;;;;;;;1.42;0.60;;;8.40;99.90;;;;;;5051789;28;20173;-66
2021/04/15 13:37:40;;;;;;;2.85;0.88;;;8.40;99.90;;;;;;5052844;28;20693;-65
2021/04/15 13:40:25;;;;;;;1.10;0.60;;;8.40;99.90;;;;;;5055765;28;20189;-64
2021/04/15 13:42:52;;;;;;;0.80;0.50;;;8.50;99.90;;;;;;5054940;28;20316;-64
2021/04/15 13:45:45;;;;;;;0.80;0.50;;;8.20;99.90;;;;;;5056017;28;20250;-66
2021/04/15 13:48:43;;;;;;;1.48;0.85;;;8.10;99.90;;;;;;5055916;28;20212;-65
2021/04/15 13:51:19;;;;;;;0.90;0.68;;;8.00;99.90;;;;;;4994606;28;20187;-63
2021/04/15 13:54:00;;;;;;;2.00;0.70;;;8.10;99.90;;;;;;5045947;28;20250;-63